Terminal Aerodrome Forecast
Issued by NWS

Home | Current Version | Previous Version | Text Only | Print | Product List | Glossary On
Versions: 1 2 3 4 5 6 7 8 9 10 11 12 13 14 15 16
341
FTUS43 KOAX 260804 AAA
TAFBFF
TAF AMD
KBFF 260804Z 2608/2706 36009KT P6SM SCT012 OVC025
     FM261100 01009KT P6SM BKN012 OVC025
     FM261600 34012KT P6SM SCT015 OVC040
     FM262100 07009KT P6SM OVC050=

USA.gov is the U.S. government's official web portal to all federal, state and local government web resources and services.